createdAt,value
2023-02-03T00:02:00.279Z,4.88
2023-02-03T00:04:45.968Z,10.27
2023-02-03T00:07:14.167Z,5.20
2023-02-03T00:09:41.723Z,5.82
2023-02-03T00:12:09.659Z,5.22
2023-02-03T00:14:38.021Z,5.43
2023-02-03T00:17:06.067Z,5.22
2023-02-03T00:19:35.472Z,4.57
2023-02-03T00:22:02.736Z,6.05
2023-02-03T00:24:29.712Z,5.10
2023-02-03T00:26:56.944Z,2.80
2023-02-03T00:29:26.028Z,3.55
2023-02-03T00:31:54.247Z,4.97
2023-02-03T00:34:21.828Z,2.88
2023-02-03T00:36:49.174Z,3.42
2023-02-03T00:39:16.700Z,7.85
2023-02-03T00:41:44.479Z,6.20
2023-02-03T00:44:11.557Z,4.18
2023-02-03T00:46:39.717Z,7.68
2023-02-03T00:49:07.201Z,8.25
2023-02-03T00:51:35.189Z,4.20
2023-02-03T00:54:02.248Z,5.88
2023-02-03T00:56:29.608Z,5.70
2023-02-03T00:58:56.749Z,5.55
2023-02-03T01:01:24.151Z,6.45
2023-02-03T01:03:51.206Z,7.43
2023-02-03T01:06:20.905Z,5.40
2023-02-03T01:08:48.803Z,7.20
2023-02-03T01:11:21.950Z,4.20
2023-02-03T01:16:20.083Z,8.18
2023-02-03T01:18:47.911Z,4.63
2023-02-03T01:21:22.231Z,3.47
2023-02-03T01:23:50.081Z,5.57
2023-02-03T01:26:20.388Z,4.03
2023-02-03T01:28:55.539Z,6.43
2023-02-03T01:31:28.911Z,3.83
2023-02-03T01:33:56.648Z,5.68
2023-02-03T01:36:26.174Z,5.35
2023-02-03T01:38:53.753Z,4.55
2023-02-03T01:41:24.393Z,4.70
2023-02-03T01:43:54.233Z,3.75
2023-02-03T01:46:31.598Z,5.22
2023-02-03T01:49:07.390Z,6.13
2023-02-03T01:51:37.563Z,3.65
2023-02-03T01:54:05.602Z,7.43
2023-02-03T01:56:36.438Z,4.63
2023-02-03T01:59:03.616Z,5.28
2023-02-03T02:01:33.172Z,5.63
2023-02-03T02:04:02.950Z,3.75
2023-02-03T02:06:30.503Z,6.70
2023-02-03T02:09:00.696Z,7.78
2023-02-03T02:11:28.933Z,6.18
2023-02-03T02:14:00.928Z,5.43
2023-02-03T02:16:54.835Z,6.82
2023-02-03T02:19:54.304Z,7.90
2023-02-03T02:22:35.464Z,6.30
2023-02-03T02:25:25.801Z,5.35
2023-02-03T02:28:11.583Z,6.50
2023-02-03T02:31:00.489Z,6.13
2023-02-03T02:34:13.011Z,7.90
2023-02-03T02:36:52.077Z,11.45
2023-02-03T02:39:45.494Z,32.72
2023-02-03T02:42:32.052Z,46.97
2023-02-03T02:45:08.469Z,54.65
2023-02-03T02:47:35.443Z,33.72
2023-02-03T02:50:14.674Z,44.42
2023-02-03T02:52:44.038Z,40.65
2023-02-03T02:55:17.187Z,28.10
2023-02-03T02:57:46.344Z,35.38
2023-02-03T03:00:14.582Z,17.80
2023-02-03T03:02:41.511Z,14.73
2023-02-03T03:05:12.003Z,23.05
2023-02-03T03:07:52.678Z,16.30
2023-02-03T03:10:24.903Z,12.63
2023-02-03T03:12:56.867Z,12.13
2023-02-03T03:15:27.712Z,10.82
2023-02-03T03:18:16.781Z,9.57
2023-02-03T03:20:46.275Z,12.60
2023-02-03T03:23:27.541Z,12.43
2023-02-03T03:26:03.995Z,14.82
2023-02-03T03:28:42.079Z,11.32
2023-02-03T03:31:09.631Z,11.20
2023-02-03T03:33:36.895Z,14.32
2023-02-03T03:36:28.892Z,13.77
2023-02-03T03:39:09.645Z,11.20
2023-02-03T03:41:39.809Z,11.07
2023-02-03T03:44:12.839Z,15.25
2023-02-03T03:46:52.014Z,12.50
2023-02-03T03:49:22.221Z,9.88
2023-02-03T03:51:56.296Z,12.50
2023-02-03T03:54:25.981Z,12.90
2023-02-03T03:57:15.174Z,9.90
2023-02-03T03:59:45.667Z,12.77
2023-02-03T04:02:14.272Z,8.80
2023-02-03T04:04:41.783Z,11.70
2023-02-03T04:07:08.969Z,9.40
2023-02-03T04:09:37.061Z,11.82
2023-02-03T04:12:06.342Z,12.45
2023-02-03T04:14:37.934Z,9.50
2023-02-03T04:17:05.314Z,11.52
2023-02-03T04:19:32.304Z,10.93
2023-02-03T04:21:59.518Z,10.13
2023-02-03T04:24:26.564Z,10.40
2023-02-03T04:26:53.922Z,8.75
2023-02-03T04:29:20.871Z,8.48
2023-02-03T04:31:48.167Z,10.70
2023-02-03T04:34:15.165Z,8.18
2023-02-03T04:36:42.583Z,8.13
2023-02-03T04:39:09.608Z,10.13
2023-02-03T04:41:36.911Z,7.10
2023-02-03T04:44:04.025Z,6.70
2023-02-03T04:46:31.238Z,8.95
2023-02-03T04:48:58.206Z,10.40
2023-02-03T04:51:25.387Z,7.82
2023-02-03T04:53:52.307Z,10.43
2023-02-03T04:56:19.607Z,10.98
2023-02-03T04:58:46.690Z,9.32
2023-02-03T05:01:13.916Z,8.50
2023-02-03T05:03:40.935Z,8.48
2023-02-03T05:06:08.464Z,6.65
2023-02-03T05:08:35.677Z,11.30
2023-02-03T05:11:04.264Z,10.15
2023-02-03T05:13:32.136Z,9.60
2023-02-03T05:15:59.460Z,14.77
2023-02-03T05:18:26.359Z,12.50
2023-02-03T05:20:53.624Z,7.60
2023-02-03T05:23:20.591Z,11.55
2023-02-03T05:25:47.839Z,11.75
2023-02-03T05:28:14.857Z,10.20
2023-02-03T05:30:42.236Z,7.88
2023-02-03T05:33:09.275Z,9.27
2023-02-03T05:35:36.857Z,11.52
2023-02-03T05:38:04.294Z,8.70
2023-02-03T05:40:50.293Z,7.90
2023-02-03T05:43:17.250Z,11.35
2023-02-03T05:45:44.670Z,14.15
2023-02-03T05:48:11.990Z,10.07
2023-02-03T05:50:39.488Z,13.18
2023-02-03T05:53:07.804Z,12.85
2023-02-03T05:55:36.208Z,14.75
2023-02-03T05:58:03.294Z,18.17
2023-02-03T06:00:31.042Z,11.18
2023-02-03T06:03:00.813Z,12.98
2023-02-03T06:05:28.999Z,12.43
2023-02-03T06:07:55.995Z,12.43
2023-02-03T06:10:23.348Z,11.80
2023-02-03T06:12:50.528Z,18.02
2023-02-03T06:15:18.708Z,12.35
2023-02-03T06:17:47.498Z,18.40
2023-02-03T06:20:18.011Z,15.40
2023-02-03T06:22:44.966Z,13.13
2023-02-03T06:25:14.307Z,13.02
2023-02-03T06:27:41.586Z,16.20
2023-02-03T06:30:11.287Z,15.35
2023-02-03T06:32:38.746Z,11.10
2023-02-03T06:35:06.735Z,14.40
2023-02-03T06:37:33.836Z,16.45
2023-02-03T06:40:01.345Z,11.73
2023-02-03T06:42:28.500Z,14.75
2023-02-03T06:44:55.831Z,17.77
2023-02-03T06:47:22.959Z,12.15
2023-02-03T06:49:52.318Z,12.93
2023-02-03T06:52:19.975Z,14.57
2023-02-03T06:54:50.025Z,13.32
2023-02-03T06:57:16.943Z,16.23
2023-02-03T06:59:44.192Z,11.40
2023-02-03T07:02:11.983Z,13.90
2023-02-03T07:04:40.780Z,14.23
2023-02-03T07:07:07.916Z,14.05
2023-02-03T07:09:35.508Z,14.13
2023-02-03T07:12:02.464Z,18.48
2023-02-03T07:14:31.188Z,12.07
2023-02-03T07:16:58.253Z,14.10
2023-02-03T07:19:25.594Z,10.85
2023-02-03T07:21:52.573Z,10.68
2023-02-03T07:24:20.028Z,15.10
2023-02-03T07:26:47.036Z,12.40
2023-02-03T07:29:14.225Z,10.15
2023-02-03T07:31:41.706Z,11.02
2023-02-03T07:34:09.204Z,11.65
2023-02-03T07:36:36.187Z,7.93
2023-02-03T07:39:03.637Z,11.18
2023-02-03T07:41:30.617Z,12.63
2023-02-03T07:43:58.105Z,7.60
2023-02-03T07:46:25.250Z,10.73
2023-02-03T07:48:52.491Z,8.52
2023-02-03T07:51:19.561Z,13.57
2023-02-03T07:53:47.293Z,10.02
2023-02-03T07:56:14.376Z,12.52
2023-02-03T07:58:41.756Z,8.13
2023-02-03T08:01:16.652Z,8.02
2023-02-03T08:03:44.134Z,9.23
2023-02-03T08:06:11.245Z,10.68
2023-02-03T08:08:38.895Z,9.95
2023-02-03T08:11:05.864Z,8.68
2023-02-03T08:13:33.639Z,5.68
2023-02-03T08:16:01.070Z,8.85
2023-02-03T08:18:29.372Z,9.52
2023-02-03T08:20:57.928Z,7.15
2023-02-03T08:23:25.465Z,4.30
2023-02-03T08:25:53.149Z,6.05
2023-02-03T08:28:21.018Z,4.72
2023-02-03T08:30:48.167Z,8.60
2023-02-03T08:33:15.716Z,10.45
2023-02-03T08:35:46.443Z,4.30
2023-02-03T08:38:13.893Z,8.48
2023-02-03T08:40:40.873Z,9.23
2023-02-03T08:43:08.538Z,5.13
2023-02-03T08:45:35.679Z,6.20
2023-02-03T08:48:06.708Z,9.35
2023-02-03T08:50:33.705Z,5.38
2023-02-03T08:53:01.061Z,7.03
2023-02-03T08:55:28.337Z,7.22
2023-02-03T08:57:56.181Z,8.57
2023-02-03T09:00:23.469Z,5.15
2023-02-03T09:02:51.074Z,4.97
2023-02-03T09:05:18.581Z,6.70
2023-02-03T09:07:45.869Z,7.55
2023-02-03T09:10:13.049Z,8.45
2023-02-03T09:12:40.483Z,6.15
2023-02-03T09:15:07.804Z,10.27
2023-02-03T09:17:35.326Z,8.88
2023-02-03T09:20:02.378Z,6.38
2023-02-03T09:22:29.707Z,8.52
2023-02-03T09:24:56.859Z,10.38
2023-02-03T09:27:24.207Z,7.43
2023-02-03T09:29:51.170Z,504.42
2023-02-03T09:32:18.787Z,1182.32
2023-02-03T09:34:45.756Z,1107.22
2023-02-03T09:37:14.003Z,81.45
2023-02-03T09:39:41.091Z,1474.75
2023-02-03T09:42:39.475Z,1452.68
2023-02-03T09:45:22.130Z,1999.90
2023-02-03T09:47:54.140Z,988.53
2023-02-03T09:50:28.200Z,1281.10
2023-02-03T09:52:57.658Z,990.95
2023-02-03T09:55:36.948Z,838.28
2023-02-03T09:58:06.136Z,241.38
2023-02-03T10:00:39.971Z,299.83
2023-02-03T10:03:24.547Z,425.30
2023-02-03T10:06:16.758Z,203.68
2023-02-03T10:08:49.858Z,64.32
2023-02-03T10:11:52.564Z,59.97
2023-02-03T10:15:00.979Z,75.78
2023-02-03T10:17:43.409Z,24.38
2023-02-03T10:20:33.278Z,114.50
2023-02-03T10:23:06.942Z,33.33
2023-02-03T10:25:36.641Z,15.75
2023-02-03T10:28:09.745Z,16.90
2023-02-03T10:30:47.996Z,10.48
2023-02-03T10:33:17.758Z,10.23
2023-02-03T10:35:50.754Z,8.32
2023-02-03T10:38:56.637Z,7.40
2023-02-03T10:41:24.989Z,9.02
2023-02-03T10:43:54.485Z,14.70
2023-02-03T10:46:35.358Z,8.75
2023-02-03T10:49:02.612Z,12.90
2023-02-03T10:51:38.747Z,8.60
2023-02-03T10:54:21.113Z,7.80
2023-02-03T10:56:48.700Z,8.57
2023-02-03T10:59:30.258Z,9.77
2023-02-03T11:01:58.925Z,17.38
2023-02-03T11:04:32.655Z,6.95
2023-02-03T11:07:08.741Z,7.05
2023-02-03T11:09:38.792Z,12.40
2023-02-03T11:12:14.969Z,8.95
2023-02-03T11:14:50.380Z,14.57
2023-02-03T11:17:27.104Z,13.23
2023-02-03T11:20:02.758Z,6.80
2023-02-03T11:22:35.715Z,7.28
2023-02-03T11:25:05.703Z,6.75
2023-02-03T11:27:33.896Z,5.05
2023-02-03T11:30:19.538Z,6.18
2023-02-03T11:32:48.608Z,5.93
2023-02-03T11:35:23.934Z,7.30
2023-02-03T11:37:57.542Z,6.60
2023-02-03T11:40:26.707Z,6.75
2023-02-03T11:42:57.292Z,4.90
2023-02-03T11:45:36.110Z,3.53
2023-02-03T11:48:25.724Z,5.15
2023-02-03T11:51:37.607Z,3.47
2023-02-03T11:54:34.915Z,5.82
2023-02-03T11:57:27.004Z,5.18
2023-02-03T12:00:13.488Z,4.65
2023-02-03T12:03:02.278Z,3.90
2023-02-03T12:06:00.644Z,9.50
2023-02-03T12:08:38.742Z,7.78
2023-02-03T12:12:00.528Z,8.10
2023-02-03T12:14:33.081Z,8.05
2023-02-03T12:20:20.377Z,10.35
2023-02-03T12:22:59.219Z,6.13
2023-02-03T12:25:44.574Z,9.52
2023-02-03T12:28:34.307Z,5.35
2023-02-03T12:31:16.093Z,5.88
2023-02-03T12:34:24.776Z,6.22
2023-02-03T12:37:05.401Z,5.25
2023-02-03T12:39:43.508Z,5.35
2023-02-03T12:42:20.114Z,6.97
2023-02-03T12:44:53.832Z,5.60
2023-02-03T12:49:57.274Z,4.25
2023-02-03T12:55:20.098Z,5.75
2023-02-03T12:57:50.886Z,6.00
2023-02-03T13:01:00.728Z,13.05
2023-02-03T13:03:42.020Z,15.95
2023-02-03T13:06:32.336Z,15.60
2023-02-03T13:09:02.847Z,6.47
2023-02-03T13:11:51.683Z,6.45
2023-02-03T13:14:33.415Z,5.75
2023-02-03T13:17:20.573Z,5.95
2023-02-03T13:19:52.097Z,6.95
2023-02-03T13:22:23.869Z,5.88
2023-02-03T13:25:14.688Z,8.98
2023-02-03T13:27:46.996Z,6.60
2023-02-03T13:30:38.557Z,7.07
2023-02-03T13:33:17.529Z,4.28
2023-02-03T13:36:02.251Z,5.00
2023-02-03T13:38:55.761Z,5.38
2023-02-03T13:41:39.590Z,4.72
2023-02-03T13:44:13.431Z,4.57
2023-02-03T13:46:41.508Z,4.55
2023-02-03T13:49:09.711Z,4.25
2023-02-03T13:51:46.047Z,4.22
2023-02-03T13:54:26.847Z,4.53
2023-02-03T13:56:59.891Z,7.85
2023-02-03T13:59:29.382Z,5.40
2023-02-03T14:02:15.304Z,5.18
2023-02-03T14:04:45.731Z,4.22
2023-02-03T14:07:35.395Z,8.07
2023-02-03T14:10:23.431Z,21.83
2023-02-03T14:12:50.461Z,287.20
2023-02-03T14:15:31.175Z,72.53
2023-02-03T14:18:26.662Z,53.05
2023-02-03T14:21:21.059Z,20.17
2023-02-03T14:23:59.450Z,20.23
2023-02-03T14:26:38.699Z,26.55
2023-02-03T14:29:06.851Z,32.13
2023-02-03T14:31:55.515Z,15.43
2023-02-03T14:34:34.378Z,6.32
2023-02-03T14:37:12.862Z,8.93
2023-02-03T14:40:05.169Z,6.28
2023-02-03T14:43:11.605Z,6.95
2023-02-03T14:46:16.324Z,7.43
2023-02-03T14:48:58.621Z,8.95
2023-02-03T14:51:31.271Z,8.88
2023-02-03T14:54:17.555Z,11.73
2023-02-03T14:57:12.383Z,10.52
2023-02-03T14:59:42.954Z,12.27
2023-02-03T15:02:17.750Z,16.40
2023-02-03T15:04:46.512Z,16.30
2023-02-03T15:07:37.962Z,13.50
2023-02-03T15:10:20.906Z,15.75
2023-02-03T15:12:50.704Z,25.20
2023-02-03T15:15:18.625Z,18.85
2023-02-03T15:17:46.292Z,18.95
2023-02-03T15:20:38.848Z,14.55
2023-02-03T15:23:26.449Z,13.35
2023-02-03T15:25:58.082Z,17.83
2023-02-03T15:28:26.764Z,18.00
2023-02-03T15:30:57.901Z,13.90
2023-02-03T15:33:25.685Z,17.38
2023-02-03T15:36:04.253Z,18.40
2023-02-03T15:38:39.997Z,19.00
2023-02-03T15:41:17.271Z,18.67
2023-02-03T15:43:46.807Z,15.15
2023-02-03T15:46:25.784Z,18.17
2023-02-03T15:49:02.118Z,17.30
2023-02-03T15:51:39.990Z,20.25
2023-02-03T15:54:30.215Z,20.95
2023-02-03T15:57:06.416Z,13.65
2023-02-03T15:59:42.648Z,15.43
2023-02-03T16:02:17.587Z,14.00
2023-02-03T16:04:45.357Z,16.95
2023-02-03T16:07:21.097Z,18.85
2023-02-03T16:09:52.070Z,19.52
2023-02-03T16:12:31.235Z,18.75
2023-02-03T16:15:00.257Z,13.98
2023-02-03T16:17:29.123Z,10.65
2023-02-03T16:20:11.015Z,17.75
2023-02-03T16:22:38.352Z,14.20
2023-02-03T16:25:26.774Z,18.65
2023-02-03T16:28:32.039Z,12.25
2023-02-03T16:31:22.148Z,15.57
2023-02-03T16:34:09.211Z,11.88
2023-02-03T16:37:02.474Z,18.10
2023-02-03T16:42:39.525Z,14.63
2023-02-03T16:45:33.253Z,14.25
2023-02-03T16:48:19.275Z,18.90
2023-02-03T16:50:59.779Z,16.92
2023-02-03T16:53:32.732Z,17.50
2023-02-03T16:58:28.700Z,12.13
2023-02-03T17:00:59.648Z,16.92
2023-02-03T17:03:28.342Z,14.18
2023-02-03T17:05:57.398Z,17.30
2023-02-03T17:08:26.074Z,19.67
2023-02-03T17:10:54.171Z,12.43
2023-02-03T17:13:22.951Z,24.08
2023-02-03T17:15:54.625Z,19.73
2023-02-03T17:18:22.007Z,27.17
2023-02-03T17:20:49.334Z,24.17
2023-02-03T17:23:16.959Z,29.52
2023-02-03T17:25:46.947Z,22.65
2023-02-03T17:28:14.112Z,30.02
2023-02-03T17:30:42.149Z,22.55
2023-02-03T17:33:12.231Z,22.33
2023-02-03T17:35:44.566Z,20.30
2023-02-03T17:38:13.315Z,34.70
2023-02-03T17:54:28.362Z,29.00
2023-02-03T17:56:55.582Z,20.58
2023-02-03T17:59:22.631Z,14.68
2023-02-03T18:01:49.957Z,25.67
2023-02-03T18:04:16.936Z,28.45
2023-02-03T18:06:45.180Z,30.88
2023-02-03T18:09:15.718Z,26.77
2023-02-03T18:11:45.807Z,20.65
2023-02-03T18:14:15.005Z,27.10
2023-02-03T18:16:43.892Z,24.85
2023-02-03T18:19:14.336Z,28.77
2023-02-03T18:21:43.415Z,20.73
2023-02-03T18:24:13.307Z,19.88
2023-02-03T18:26:48.903Z,26.83
2023-02-03T18:29:18.069Z,23.73
2023-02-03T18:31:45.822Z,23.67
2023-02-03T18:34:12.982Z,19.48
2023-02-03T18:39:15.268Z,24.95
2023-02-03T18:41:42.549Z,25.33
2023-02-03T18:44:09.830Z,18.27
2023-02-03T18:46:37.315Z,19.58
2023-02-03T18:49:07.464Z,18.27
2023-02-03T18:51:34.953Z,16.77
2023-02-03T18:54:02.155Z,22.63
2023-02-03T18:56:36.083Z,22.85
2023-02-03T18:59:08.809Z,19.90
2023-02-03T19:01:38.706Z,29.77
2023-02-03T19:04:06.322Z,17.95
2023-02-03T19:06:34.606Z,19.92
2023-02-03T19:09:02.740Z,18.33
2023-02-03T19:11:30.282Z,32.80
2023-02-03T19:13:57.667Z,21.77
2023-02-03T19:16:24.960Z,14.77
2023-02-03T19:18:51.921Z,19.80
2023-02-03T19:21:19.206Z,26.80
2023-02-03T19:23:46.615Z,24.27
2023-02-03T19:26:14.224Z,26.52
2023-02-03T19:28:41.642Z,22.98
2023-02-03T19:31:15.113Z,23.98
2023-02-03T19:33:42.715Z,16.67
2023-02-03T19:36:11.090Z,25.20
2023-02-03T19:38:38.188Z,25.90
2023-02-03T19:41:07.126Z,21.42
2023-02-03T19:43:34.349Z,20.70
2023-02-03T19:46:02.412Z,18.38
2023-02-03T19:48:29.652Z,15.50
2023-02-03T19:50:57.197Z,19.77
2023-02-03T19:53:24.488Z,26.77
2023-02-03T19:55:52.311Z,17.13
2023-02-03T19:58:19.537Z,15.35
2023-02-03T20:00:47.051Z,19.77
2023-02-03T20:03:14.365Z,16.30
2023-02-03T20:05:41.840Z,18.98
2023-02-03T20:08:12.918Z,18.13
2023-02-03T20:10:42.405Z,20.45
2023-02-03T20:13:10.803Z,20.38
2023-02-03T20:15:38.386Z,17.00
2023-02-03T20:18:07.083Z,19.15
2023-02-03T20:20:35.171Z,15.85
2023-02-03T20:23:02.206Z,15.10
2023-02-03T20:25:30.648Z,20.00
2023-02-03T20:28:01.874Z,16.52
2023-02-03T20:30:29.994Z,16.05
2023-02-03T20:32:57.467Z,27.63
2023-02-03T20:35:26.309Z,21.15
2023-02-03T20:37:53.841Z,14.27
2023-02-03T20:40:23.113Z,19.15
2023-02-03T20:42:51.250Z,20.40
2023-02-03T20:45:20.627Z,21.60
2023-02-03T20:47:47.903Z,21.35
2023-02-03T20:50:18.417Z,26.42
2023-02-03T20:52:47.069Z,26.88
2023-02-03T20:55:20.887Z,18.80
2023-02-03T20:57:51.398Z,21.92
2023-02-03T21:00:22.484Z,28.75
2023-02-03T21:03:08.342Z,18.33
2023-02-03T21:05:38.279Z,19.35
2023-02-03T21:08:14.153Z,19.05
2023-02-03T21:10:42.109Z,20.83
2023-02-03T21:13:21.388Z,22.05
2023-02-03T21:15:59.583Z,19.27
2023-02-03T21:18:32.621Z,37.45
2023-02-03T21:21:00.421Z,34.38
2023-02-03T21:23:42.876Z,40.20
2023-02-03T21:26:36.682Z,40.55
2023-02-03T21:31:33.509Z,34.70
2023-02-03T21:34:03.079Z,31.35
2023-02-03T21:36:35.241Z,29.08
2023-02-03T21:39:02.783Z,32.03
2023-02-03T21:41:33.571Z,25.33
2023-02-03T21:44:01.131Z,23.85
2023-02-03T21:46:32.636Z,28.73
2023-02-03T21:49:01.115Z,26.40
2023-02-03T21:51:35.308Z,22.02
2023-02-03T21:54:16.247Z,20.70
2023-02-03T21:56:45.658Z,23.65
2023-02-03T21:59:17.477Z,20.65
2023-02-03T22:01:45.368Z,22.60
2023-02-03T22:04:12.446Z,20.63
2023-02-03T22:06:45.728Z,22.30
2023-02-03T22:09:18.548Z,22.23
2023-02-03T22:14:14.215Z,21.05
2023-02-03T22:16:41.864Z,27.45
2023-02-03T22:19:09.511Z,27.13
2023-02-03T22:21:37.146Z,27.77
2023-02-03T22:24:04.472Z,30.73
2023-02-03T22:26:31.834Z,30.95
2023-02-03T22:28:58.840Z,22.73
2023-02-03T22:31:26.175Z,29.75
2023-02-03T22:33:53.157Z,29.35
2023-02-03T22:36:23.418Z,23.13
2023-02-03T22:38:50.625Z,30.88
2023-02-03T22:41:18.187Z,29.58
2023-02-03T22:43:45.180Z,29.13
2023-02-03T22:46:12.556Z,33.03
2023-02-03T22:48:39.572Z,30.10
2023-02-03T22:51:07.231Z,31.42
2023-02-03T22:53:34.861Z,30.40
2023-02-03T22:56:02.424Z,25.92
2023-02-03T22:58:29.863Z,26.52
2023-02-03T23:00:57.149Z,34.85
2023-02-03T23:03:24.245Z,36.15
2023-02-03T23:05:51.883Z,37.25
2023-02-03T23:08:18.847Z,40.47
2023-02-03T23:10:48.224Z,36.15
2023-02-03T23:13:15.378Z,43.42
2023-02-03T23:15:42.695Z,43.00
2023-02-03T23:18:09.808Z,42.88
2023-02-03T23:20:37.103Z,48.95
2023-02-03T23:23:04.064Z,46.78
2023-02-03T23:25:31.569Z,48.53
2023-02-03T23:27:58.575Z,46.20
2023-02-03T23:30:26.105Z,53.63
2023-02-03T23:32:53.069Z,51.40
2023-02-03T23:35:39.216Z,40.90
2023-02-03T23:38:06.284Z,37.15
2023-02-03T23:40:33.652Z,47.13
2023-02-03T23:43:00.705Z,50.13
2023-02-03T23:45:27.913Z,39.63
2023-02-03T23:47:54.967Z,39.83
2023-02-03T23:50:22.294Z,40.50
2023-02-03T23:52:49.324Z,40.63
2023-02-03T23:55:20.841Z,36.15
2023-02-03T23:57:48.002Z,40.55
